AirNav   Pilot Hours Calculator
 
 1088 users online  

MO05 Truman Medical Center HSD Heliport
Kansas City, Missouri, USA

GOING TO KANSAS CITY?


FAA INFORMATION EFFECTIVE 07 OCTOBER 2021

Location

FAA Identifier: MO05
Lat/Long: 39-05-03.0000N 094-34-27.0000W
39-05.050000N 094-34.450000W
39.0841667,-94.5741667
(estimated)
Elevation: 983 ft. / 300 m (estimated)
Variation: 04E (1995)
Time zone: UTC -5 (UTC -6 during Standard Time)
Zip code: 64108

Heliport Operations

Heliport use: Private use, MEDICAL USE.
Activation date: 01/2000
Control tower: no
ARTCC: KANSAS CITY CENTER
FSS: COLUMBIA FLIGHT SERVICE STATION
Attendance: UNATNDD
Wind indicator: yes
Segmented circle: no
Lights: FOR PERIMETER LGTS CALL 816-404-1900.
Beacon: white-green-yellow (heliport)
NO ROTG BCN. CTC 816-404-1900 FOR PERIMETER LIGHTS.

Heliport Communications

WX ASOS at MKC (2.5 nm N): PHONE 816-329-2843
WX ASOS at LXT (12 nm SE): 124.175 (816-347-9807)
WX ASOS at MCI (14 nm NW): PHONE 816-329-2808
WX ASOS at OJC (16 nm SW): PHONE 913-780-6969
WX AWOS-3T at GPH (19 nm NE): 120.275 (816-407-3399)

Nearby radio navigation aids

VOR radial/distance  VOR name  Freq  Var
MCIr143/14.2KANSAS CITY VORTAC113.2505E
ANXr261/20.7NAPOLEON VORTAC114.0007E

Heliport Services

Runway Information

Helipad H1

Dimensions: 50 x 50 ft. / 15 x 15 m
Surface: concrete
Runway edge lights: PERI
Latitude: 39-05.050000N
Longitude: 094-34.450000W
Elevation: 983.0 ft.
Traffic pattern: leftleft

Heliport Ownership and Management from official FAA records

Ownership: Privately-owned
Owner: TRUMAN MEDICAL CENTER HSD
2301 HOLMES ST
KANSAS CITY, MO 64108
Phone 816-404-2658
Manager: MIKE SULLIVAN
2301 HOLMES ST.
KANSAS CITY, MO 64108
Phone 816-404-2620
MIKE SULLIVAN

Additional Remarks

OWNER DESIRES HELIPORT NOT BE CHARTED.
FOR CD CTC KANSAS CITY APCH AT 816-329-2710.

Instrument Procedures

There are no published instrument procedures at MO05.

Some nearby airports with instrument procedures:

KMKC - Charles B Wheeler Downtown Airport (2 nm N)
KLXT - Lee's Summit Municipal Airport (12 nm SE)
KMCI - Kansas City International Airport (14 nm NW)
KOJC - Johnson County Executive Airport (16 nm SW)
3GV - East Kansas City Airport (17 nm E)
KGPH - Midwest National Air Center Airport (19 nm NE)
 
Loc | Ops | Rwys | IFR | FBO | Links
Com | Nav | Svcs | Stats | Notes
Area around MO05 (Truman Medical Center HSD Heliport)
 
Road maps at: MapQuest Bing Google
 
Aerial photo
No photo
 
Sectional chart

 
Airport distance calculator
Flying to Truman Medical Center HSD Heliport? Find the distance to fly.

From to MO05

Sunrise and sunset
Times for 15-Oct-2021
 Local
(UTC-5)
 Zulu
(UTC)
Morning civil twilight07:0212:02
Sunrise07:2912:29
Sunset18:3923:39
Evening civil twilight19:0600:06

Current date and time
Zulu (UTC)  15-Oct-2021 22:50:54
Local (UTC-5)  15-Oct-2021 17:50:54
 
METAR
KMKC 
2nm NW 
152154Z AUTO 33013G19KT 10SM CLR 17/00 A3008 RMK AO2 SLP183 T01720000
KLXT 
12nm SE 
152153Z AUTO A3009 RMK AO2 SLPNO PWINO FZRANO $
KMCI 
15nm NW 
152153Z 31013G21KT 10SM SCT070 17/M01 A3008 RMK AO2 SLP184 T01721006
KOJC 
16nm SW 
152153Z 32012KT 10SM FEW065 17/01 A3009 RMK AO2 SLP187 T01670011
KGPH 
19nm NE 
152215Z AUTO 33008G14KT 10SM CLR 17/M01 A3008 RMK AO2
TAF
KMKC 
2nm NW 
151720Z 1518/1618 33008KT P6SM FEW060 SCT100 FM152200 29004KT P6SM SKC
KMCI 
15nm NW 
151720Z 1518/1618 33010KT P6SM FEW060 SCT100 FM152200 29005KT P6SM SKC
NOTAMs
Click for the latest NOTAMs
NOTAMs are issued by the DoD/FAA and will open in a separate window not controlled by AirNav.

 

 
 

Would you like to see your business listed on this page?

 If your business provides an interesting product or service to pilots, flight crews, aircraft, or users of the Truman Medical Center HSD Heliport, you should consider listing it here.  To start the listing process, click on the button below
 
Add a business
 

Other Pages about Truman Medical Center HSD Heliport

Update a link
 
Copyright © AirNav, LLC. All rights reserved. Privacy Policy  Contact